Terminal Aerodrome Forecast
Issued by NWS

Home | Current Version | Previous Version | Text Only | Print | Product List | Glossary On
Versions: 1 2 3 4 5 6 7 8 9 10 11 12 13 14 15 16 17 18 19
000
FTUS41 KGYX 290801 AAB
TAFRKD
TAF AMD
KRKD 290801Z 2908/3006 00000KT 6SM BR SCT002
     FM290900 06003KT 1/2SM FG BKN002
     FM291300 VRB05KT P6SM -SHRA BKN050
     FM292300 15006KT P6SM SCT050 BKN100
     FM300400 00000KT 1/4SM FG BKN003
      AMD LTD TO CLD VIS AND WIND=

USA.gov is the U.S. government's official web portal to all federal, state and local government web resources and services.